Temp: 14.2°C   Baro: 1022.9mb
  Wind: 4.0mph   Dir: E (100°)
  Rain: 0.0mm (0.0mm/hr)
  Sun: 0W/m2  Humidity: 75%

Historic data

Bath Spa Weather Station Historical Data
Daily Summary for May 19, 2024 Units:  English    Metric   Both
Daily Weekly Monthly Yearly Custom
  High: Low: Average:
Temperature: 76.4 °F 49.3 °F 63.3 °F
Dew Point: 55.8 °F 45.1 °F 51.1 °F
Humidity: 86% 45% 66%
Wind Speed: 9mph 0mph 2.8mph
Wind Gust: 17mph - -
Wind- - ENE
Pressure: 29.99 in 29.93 in -
Precipitation: 0.00 in    
Historical Graphs
 
 
Tabular Data for May 19, 2024
Time Temperature Dew Point Pressure Wind Wind Speed Wind Gust Humidity Rainfall Rate (Hourly) solar
00:09 62.2 °F 55 °F 29.97 in Calm     77.4% 0.00 in 0 W/m2
00:14 62.1 °F 55 °F 29.97 in Calm     78% 0.00 in 0 W/m2
00:19 61.9 °F 54.9 °F 29.96 in Calm     78% 0.00 in 0 W/m2
00:24 61.6 °F 54.8 °F 29.97 in NE 0.8 mph 3 mph 78% 0.00 in 0 W/m2
00:29 61.4 °F 54.6 °F 29.96 in NE 0.9 mph 3 mph 78% 0.00 in 0 W/m2
00:34 61.3 °F 54.4 °F 29.96 in NE 0.8 mph 5 mph 78% 0.00 in 0 W/m2
00:39 61 °F 54.3 °F 29.96 in NE 1.9 mph 4 mph 78.4% 0.00 in 0 W/m2
00:44 60.7 °F 54.2 °F 29.96 in ENE 1.1 mph 5 mph 79% 0.00 in 0 W/m2
00:49 60.4 °F 54 °F 29.96 in ENE 1.4 mph 4 mph 79% 0.00 in 0 W/m2
00:54 60.4 °F 53.9 °F 29.96 in ENE 1.2 mph 3 mph 79% 0.00 in 0 W/m2
00:59 60.3 °F 53.8 °F 29.96 in ENE 0.6 mph 4 mph 79% 0.00 in 0 W/m2
01:04 60.1 °F 53.6 °F 29.96 in ENE 0.8 mph 4 mph 79% 0.00 in 0 W/m2
01:09 60.1 °F 53.6 °F 29.96 in ENE 1 mph 3 mph 79% 0.00 in 0 W/m2
01:14 59.9 °F 53.4 °F 29.96 in ENE 1.3 mph 3 mph 79% 0.00 in 0 W/m2
01:19 59.7 °F 53.2 °F 29.96 in NNE 1.7 mph 5 mph 79% 0.00 in 0 W/m2
01:24 59.5 °F 53.2 °F 29.96 in NNE 2.2 mph 4 mph 79.6% 0.00 in 0 W/m2
01:29 59.3 °F 53.2 °F 29.96 in NE 1.4 mph 3 mph 80% 0.00 in 0 W/m2
01:34 59.2 °F 53.1 °F 29.96 in NE 1.3 mph 4 mph 80% 0.00 in 0 W/m2
01:39 58.8 °F 52.7 °F 29.96 in ENE 0.8 mph 4 mph 80% 0.00 in 0 W/m2
01:44 58.7 °F 52.6 °F 29.96 in ENE 0.8 mph 3 mph 80% 0.00 in 0 W/m2
01:49 58.5 °F 52.4 °F 29.96 in Calm   3 mph 80% 0.00 in 0 W/m2
01:54 58.4 °F 52.3 °F 29.96 in ENE 0.8 mph 3 mph 80% 0.00 in 0 W/m2
01:59 58.1 °F 52 °F 29.96 in ENE 0.4 mph 2 mph 80% 0.00 in 0 W/m2
02:04 57.8 °F 51.7 °F 29.96 in ENE 0.8 mph 4 mph 80% 0.00 in 0 W/m2
02:09 57.6 °F 51.5 °F 29.96 in NE 0.6 mph 4 mph 80% 0.00 in 0 W/m2
02:14 57.3 °F 51.2 °F 29.96 in NE 1 mph 2 mph 80% 0.00 in 0 W/m2
02:19 56.9 °F 51.1 °F 29.96 in NE 1.1 mph 3 mph 80.8% 0.00 in 0 W/m2
02:24 56.7 °F 50.8 °F 29.96 in NE 1.5 mph 3 mph 81% 0.00 in 0 W/m2
02:29 56.5 °F 50.7 °F 29.96 in NE 0.4 mph 2 mph 81% 0.00 in 0 W/m2
02:34 56.1 °F 50.4 °F 29.96 in NE 1.2 mph 2 mph 81% 0.00 in 0 W/m2
02:39 55.9 °F 50.2 °F 29.96 in NE 0.9 mph 2 mph 81% 0.00 in 0 W/m2
02:44 55.8 °F 50.1 °F 29.96 in NE 0.9 mph 2 mph 81.4% 0.00 in 0 W/m2
02:49 55.5 °F 50.1 °F 29.96 in NE 0.9 mph 2 mph 82% 0.00 in 0 W/m2
02:54 55.2 °F 49.8 °F 29.96 in NE 1.1 mph 2 mph 82% 0.00 in 0 W/m2
02:59 54.9 °F 49.5 °F 29.96 in NE 0.5 mph 2 mph 82% 0.00 in 0 W/m2
03:04 54.7 °F 49.3 °F 29.96 in NE 1.7 mph 3 mph 82% 0.00 in 0 W/m2
03:09 54.3 °F 49.3 °F 29.96 in NE 1.3 mph 3 mph 82.8% 0.00 in 0 W/m2
03:14 54.2 °F 49.2 °F 29.96 in NE 1.8 mph 3 mph 83% 0.00 in 0 W/m2
03:19 54 °F 48.9 °F 29.96 in NE 1.1 mph 3 mph 83% 0.00 in 0 W/m2
03:24 53.8 °F 49.1 °F 29.96 in NE 1.1 mph 3 mph 84% 0.00 in 0 W/m2
03:29 53.7 °F 49 °F 29.96 in NE 0.7 mph 3 mph 84% 0.00 in 0 W/m2
03:34 53.5 °F 48.8 °F 29.96 in NE 0.9 mph 3 mph 84% 0.00 in 0 W/m2
03:39 53.4 °F 48.7 °F 29.96 in NE 0.8 mph 3 mph 84% 0.00 in 0 W/m2
03:44 53.2 °F 48.6 °F 29.96 in NE 0.2 mph 2 mph 84% 0.00 in 0 W/m2
03:49 53.2 °F 48.6 °F 29.96 in NE 0.5 mph 1 mph 84% 0.00 in 0 W/m2
03:54 53.1 °F 48.6 °F 29.96 in Calm   2 mph 84.6% 0.00 in 0 W/m2
03:59 52.9 °F 48.5 °F 29.96 in NE 0.5 mph 1 mph 84.8% 0.00 in 0 W/m2
04:04 52.7 °F 48.4 °F 29.96 in Calm   2 mph 85% 0.00 in 0 W/m2
04:09 52.5 °F 48.2 °F 29.96 in Calm     85% 0.00 in 0 W/m2
04:14 52.3 °F 48 °F 29.96 in NE 1 mph 3 mph 85% 0.00 in 0 W/m2
04:19 52.1 °F 47.7 °F 29.96 in NE 2.1 mph 3 mph 85% 0.00 in 0 W/m2
04:24 51.6 °F 47.3 °F 29.96 in NE 0.8 mph 3 mph 85% 0.00 in 0 W/m2
04:29 51.6 °F 47.3 °F 29.96 in NE 0.4 mph 2 mph 85% 0.00 in 0 W/m2
04:34 51.4 °F 47 °F 29.96 in NE 0.6 mph 3 mph 84.8% 0.00 in 0 W/m2
04:39 51.4 °F 47 °F 29.96 in NE 0.6 mph 2 mph 84.6% 0.00 in 0 W/m2
04:44 51.6 °F 47.3 °F 29.96 in NE 1 mph 2 mph 85% 0.00 in 0 W/m2
04:49 51.5 °F 47.2 °F 29.96 in Calm   2 mph 85% 0.00 in 0 W/m2
04:54 51.4 °F 47 °F 29.96 in Calm   2 mph 85% 0.00 in 0 W/m2
04:59 51.2 °F 46.8 °F 29.96 in Calm   1 mph 85% 0.00 in 0 W/m2
05:04 50.9 °F 46.6 °F 29.97 in Calm     85% 0.00 in 0 W/m2
05:09 50.7 °F 46.4 °F 29.97 in Calm     85% 0.00 in 0 W/m2
05:14 50.5 °F 46.2 °F 29.97 in NE 0.2 mph 2 mph 85% 0.00 in 0 W/m2
05:19 50.4 °F 46.3 °F 29.97 in Calm     85.8% 0.00 in 5 W/m2
05:24 50.3 °F 46.3 °F 29.97 in Calm   1 mph 85.8% 0.00 in 7 W/m2
05:29 50.2 °F 46.2 °F 29.97 in Calm   1 mph 86% 0.00 in 9 W/m2
05:34 49.9 °F 46 °F 29.98 in NE 0.6 mph 2 mph 86% 0.00 in 11 W/m2
05:39 49.8 °F 45.9 °F 29.98 in Calm   2 mph 86% 0.00 in 12 W/m2
05:44 49.6 °F 45.6 °F 29.97 in Calm   2 mph 86% 0.00 in 16 W/m2
05:49 49.5 °F 45.5 °F 29.98 in NE 0.9 mph 5 mph 86% 0.00 in 18 W/m2
05:54 49.3 °F 45.3 °F 29.98 in NNE 0.6 mph 4 mph 86% 0.00 in 19 W/m2
05:59 49.3 °F 45.3 °F 29.98 in Calm   1 mph 86% 0.00 in 21 W/m2
06:04 49.6 °F 45.7 °F 29.98 in Calm   1 mph 86% 0.00 in 23 W/m2
06:09 49.6 °F 45.7 °F 29.98 in NNE 0.2 mph 2 mph 86% 0.00 in 25 W/m2
06:14 49.5 °F 45.6 °F 29.98 in NNE 0.2 mph 2 mph 86% 0.00 in 26 W/m2
06:19 49.4 °F 45.4 °F 29.98 in NNE 0.4 mph 2 mph 86% 0.00 in 30 W/m2
06:24 49.3 °F 45.3 °F 29.98 in NNE 0.5 mph 3 mph 86% 0.00 in 30 W/m2
06:29 49.4 °F 45.1 °F 29.98 in NNE 1.4 mph 3 mph 85.2% 0.00 in 37 W/m2
06:34 49.7 °F 45.2 °F 29.98 in NNE 0.6 mph 2 mph 84.6% 0.00 in 51 W/m2
06:39 50.4 °F 45.5 °F 29.98 in NNE 0.8 mph 2 mph 83.6% 0.00 in 58 W/m2
06:44 50.9 °F 45.7 °F 29.98 in NNE 1.8 mph 4 mph 82.2% 0.00 in 62 W/m2
06:49 51.4 °F 45.5 °F 29.98 in NNW 2.2 mph 4 mph 80% 0.00 in 102 W/m2
06:54 51.9 °F 45.3 °F 29.98 in NW 2.1 mph 4 mph 78.2% 0.00 in 111 W/m2
06:59 52.2 °F 45.7 °F 29.98 in WNW 2 mph 4 mph 78.6% 0.00 in 146 W/m2
07:04 52.2 °F 46 °F 29.98 in West 1.2 mph 4 mph 79.6% 0.00 in 134 W/m2
07:09 52.2 °F 46.4 °F 29.98 in West 1.2 mph 4 mph 80.6% 0.00 in 127 W/m2
07:14 52.2 °F 46.6 °F 29.98 in WNW 1.7 mph 4 mph 81% 0.00 in 151 W/m2
07:19 52.2 °F 46.7 °F 29.98 in WNW 0.6 mph 2 mph 81.4% 0.00 in 153 W/m2
07:24 52.2 °F 46.8 °F 29.98 in Calm     82% 0.00 in 199 W/m2
07:29 52.3 °F 46.9 °F 29.98 in WNW 0.5 mph 3 mph 82% 0.00 in 207 W/m2
07:34 52.6 °F 47 °F 29.98 in WNW 0.9 mph 3 mph 81.2% 0.00 in 107 W/m2
07:39 52.9 °F 47.3 °F 29.98 in Calm   2 mph 81% 0.00 in 218 W/m2
07:44 53 °F 47 °F 29.98 in WNW 1.2 mph 3 mph 80% 0.00 in 172 W/m2
07:49 53.4 °F 46.7 °F 29.99 in North 2.9 mph 6 mph 77.8% 0.00 in 290 W/m2
07:54 53.9 °F 46.4 °F 29.99 in NW 1.8 mph 7 mph 75.6% 0.00 in 330 W/m2
07:59 54.3 °F 46 °F 29.99 in WNW 1.7 mph 4 mph 73.4% 0.00 in 288 W/m2
08:04 54.8 °F 46.1 °F 29.99 in NNW 4.7 mph 9 mph 72.4% 0.00 in 367 W/m2
08:09 54.9 °F 45.7 °F 29.99 in NW 2.1 mph 8 mph 71% 0.00 in 158 W/m2
08:14 54.9 °F 45.8 °F 29.99 in NNW 2.7 mph 7 mph 71% 0.00 in 378 W/m2
08:19 55.1 °F 46 °F 29.99 in NNE 2.4 mph 8 mph 71% 0.00 in 397 W/m2
08:24 55.8 °F 46.6 °F 29.99 in NNE 2.9 mph 6 mph 71% 0.00 in 432 W/m2
08:29 56 °F 46.7 °F 29.99 in NNW 2.8 mph 6 mph 70.8% 0.00 in 457 W/m2
08:34 56.7 °F 47.3 °F 29.99 in ENE 2.4 mph 9 mph 70.8% 0.00 in 461 W/m2
08:39 57.2 °F 47.4 °F 29.99 in North 4.4 mph 9 mph 69.6% 0.00 in 454 W/m2
08:44 57.6 °F 47.5 °F 29.99 in NNW 1.6 mph 6 mph 69% 0.00 in 469 W/m2
08:48 58.2 °F 48.1 °F 29.99 in East 2.5 mph 7 mph 69% 0.00 in 478 W/m2
08:54 58.7 °F 48.3 °F 29.99 in NE 3.8 mph 9 mph 68.4% 0.00 in 473 W/m2
08:59 59 °F 48.4 °F 29.99 in NNE 4 mph 8 mph 68% 0.00 in 455 W/m2
09:04 58.8 °F 48.3 °F 29.99 in NE 5.5 mph 10 mph 68% 0.00 in 475 W/m2
09:09 59.4 °F 48.9 °F 29.99 in North 4.8 mph 10 mph 68.6% 0.00 in 480 W/m2
09:14 58.9 °F 48.4 °F 29.99 in NNW 6 mph 10 mph 68% 0.00 in 494 W/m2
09:19 59 °F 48.9 °F 29.99 in ENE 4 mph 8 mph 69% 0.00 in 508 W/m2
09:24 59.7 °F 49.2 °F 29.99 in ENE 4.7 mph 11 mph 68.4% 0.00 in 515 W/m2
09:29 60.3 °F 49.4 °F 29.99 in ENE 5.4 mph 10 mph 67.4% 0.00 in 526 W/m2
09:34 60.8 °F 49.7 °F 29.99 in NE 4.5 mph 10 mph 66.8% 0.00 in 540 W/m2
09:39 61.2 °F 49.8 °F 29.99 in NNE 2.9 mph 9 mph 66.2% 0.00 in 550 W/m2
09:44 61.4 °F 49.6 °F 29.99 in East 5.9 mph 11 mph 65.4% 0.00 in 566 W/m2
09:49 61.3 °F 49.7 °F 29.99 in ENE 3.4 mph 11 mph 65.8% 0.00 in 584 W/m2
09:54 61.8 °F 50.2 °F 29.99 in ENE 4.7 mph 9 mph 65.8% 0.00 in 612 W/m2
09:59 62 °F 50.1 °F 29.99 in NNE 1.7 mph 9 mph 65% 0.00 in 640 W/m2
10:04 62.3 °F 50.6 °F 29.99 in NE 3.6 mph 9 mph 65.6% 0.00 in 670 W/m2
10:09 62.6 °F 50.5 °F 29.99 in NNE 2.2 mph 7 mph 64.6% 0.00 in 661 W/m2
10:14 62.2 °F 50.3 °F 29.99 in East 5.2 mph 9 mph 65% 0.00 in 656 W/m2
10:19 62.4 °F 50.9 °F 29.99 in North 2.6 mph 9 mph 66% 0.00 in 659 W/m2
10:24 62.6 °F 50.8 °F 29.99 in ENE 4.7 mph 13 mph 65.2% 0.00 in 659 W/m2
10:29 63.1 °F 51.2 °F 29.99 in ENE 4.1 mph 9 mph 64.8% 0.00 in 673 W/m2
10:34 63.6 °F 51.6 °F 29.99 in NE 5.1 mph 12 mph 65% 0.00 in 687 W/m2
10:39 63.9 °F 51.6 °F 29.99 in NE 4 mph 12 mph 64.4% 0.00 in 687 W/m2
10:44 64 °F 52 °F 29.99 in East 4.6 mph 10 mph 65% 0.00 in 689 W/m2
10:49 63.7 °F 51.6 °F 29.99 in East 4.2 mph 8 mph 64.8% 0.00 in 693 W/m2
10:54 63.8 °F 52.3 °F 29.99 in East 5.2 mph 11 mph 66% 0.00 in 705 W/m2
10:59 62.9 °F 51.4 °F 29.99 in SE 4.4 mph 13 mph 66% 0.00 in 715 W/m2
11:04 61.4 °F 50.9 °F 29.99 in ESE 5.3 mph 10 mph 68.4% 0.00 in 717 W/m2
11:09 62.8 °F 52.6 °F 29.99 in NE 2.5 mph 11 mph 69.2% 0.00 in 726 W/m2
11:14 63.3 °F 52.2 °F 29.99 in ESE 4.9 mph 10 mph 67.2% 0.00 in 737 W/m2
11:19 62.9 °F 51.9 °F 29.99 in ESE 2.6 mph 6 mph 67.4% 0.00 in 747 W/m2
11:24 63.7 °F 52.7 °F 29.99 in East 3.7 mph 8 mph 67.6% 0.00 in 754 W/m2
11:29 65 °F 53.6 °F 29.99 in ESE 4.5 mph 10 mph 66.6% 0.00 in 765 W/m2
11:34 63.9 °F 52.1 °F 29.99 in ESE 5.7 mph 9 mph 65.6% 0.00 in 765 W/m2
11:39 63.2 °F 52.3 °F 29.98 in ESE 3.8 mph 8 mph 67.8% 0.00 in 775 W/m2
11:44 63.4 °F 52.6 °F 29.99 in East 1.2 mph 7 mph 68.2% 0.00 in 777 W/m2
11:49 64.4 °F 53.4 °F 29.98 in ESE 3.7 mph 8 mph 67.4% 0.00 in 788 W/m2
11:54 65.4 °F 53.9 °F 29.99 in East 4 mph 9 mph 66.4% 0.00 in 791 W/m2
11:59 65.5 °F 53.8 °F 29.98 in ESE 2.8 mph 7 mph 66% 0.00 in 798 W/m2
12:04 65.6 °F 54.3 °F 29.98 in East 3.7 mph 8 mph 67% 0.00 in 812 W/m2
12:09 66.6 °F 54.5 °F 29.98 in NE 4.1 mph 8 mph 65.2% 0.00 in 812 W/m2
12:14 66.2 °F 54.2 °F 29.98 in ESE 4 mph 8 mph 65.2% 0.00 in 812 W/m2
12:19 66.8 °F 54.9 °F 29.98 in ENE 5.2 mph 12 mph 65.6% 0.00 in 814 W/m2
12:24 67.1 °F 54.5 °F 29.98 in NNE 6.6 mph 12 mph 63.8% 0.00 in 816 W/m2
12:29 67.6 °F 54.5 °F 29.98 in North 4.8 mph 12 mph 62.8% 0.00 in 819 W/m2
12:34 68 °F 54.8 °F 29.98 in North 4.1 mph 9 mph 62.8% 0.00 in 826 W/m2
12:39 68.8 °F 55.6 °F 29.98 in NNE 6.5 mph 11 mph 62.8% 0.00 in 826 W/m2
12:44 68.5 °F 54.8 °F 29.98 in NNE 7.2 mph 13 mph 61.6% 0.00 in 831 W/m2
12:49 69.3 °F 55.1 °F 29.98 in NE 4.6 mph 11 mph 60.8% 0.00 in 830 W/m2
12:54 70.2 °F 55.8 °F 29.98 in NE 2.9 mph 10 mph 60.2% 0.00 in 830 W/m2
12:59 71.1 °F 55.7 °F 29.98 in East 2.5 mph 10 mph 58.2% 0.00 in 835 W/m2
13:04 71.4 °F 55.4 °F 29.98 in East 2.9 mph 10 mph 57% 0.00 in 835 W/m2
13:09 70.6 °F 55 °F 29.98 in NE 5.7 mph 15 mph 57.8% 0.00 in 838 W/m2
13:14 71.1 °F 55.1 °F 29.97 in NE 5.6 mph 13 mph 57% 0.00 in 840 W/m2
13:19 70.9 °F 55.2 °F 29.97 in North 3.7 mph 11 mph 57.6% 0.00 in 838 W/m2
13:24 71.1 °F 55.3 °F 29.97 in NE 5 mph 12 mph 57.4% 0.00 in 838 W/m2
13:29 71.2 °F 54.9 °F 29.97 in East 3.6 mph 8 mph 56.4% 0.00 in 840 W/m2
13:34 71.5 °F 54.9 °F 29.97 in East 4.7 mph 15 mph 56% 0.00 in 838 W/m2
13:39 71.8 °F 54.7 °F 29.97 in East 4.6 mph 15 mph 55% 0.00 in 838 W/m2
13:44 71.9 °F 54.9 °F 29.97 in NE 4.1 mph 11 mph 55.2% 0.00 in 833 W/m2
13:49 72.8 °F 54.8 °F 29.97 in ENE 6.3 mph 13 mph 53.4% 0.00 in 830 W/m2
13:54 73 °F 54 °F 29.97 in NE 5.5 mph 13 mph 51.4% 0.00 in 826 W/m2
13:59 73.1 °F 54.4 °F 29.97 in East 3.3 mph 11 mph 52% 0.00 in 828 W/m2
14:04 72.5 °F 54 °F 29.97 in NE 4.7 mph 12 mph 52.4% 0.00 in 823 W/m2
14:09 72.7 °F 54.5 °F 29.97 in ENE 5.5 mph 11 mph 53% 0.00 in 819 W/m2
14:14 73 °F 54.2 °F 29.97 in NNE 7.8 mph 14 mph 51.8% 0.00 in 817 W/m2
14:19 72.9 °F 54.3 °F 29.96 in NE 3.6 mph 12 mph 52.2% 0.00 in 814 W/m2
14:24 73.3 °F 54.7 °F 29.96 in NNE 7.4 mph 16 mph 52.2% 0.00 in 809 W/m2
14:29 73.6 °F 54.5 °F 29.96 in NE 5.8 mph 14 mph 51.4% 0.00 in 809 W/m2
14:34 74.1 °F 54.6 °F 29.96 in NE 6 mph 14 mph 50.6% 0.00 in 803 W/m2
14:39 74.3 °F 54.5 °F 29.96 in ENE 8.8 mph 15 mph 50% 0.00 in 800 W/m2
14:44 73.8 °F 54.7 °F 29.96 in ENE 4.7 mph 10 mph 51.4% 0.00 in 796 W/m2
14:49 74 °F 54.8 °F 29.96 in NE 5.8 mph 14 mph 51% 0.00 in 791 W/m2
14:54 74.3 °F 55.2 °F 29.96 in NE 5.9 mph 14 mph 51.2% 0.00 in 795 W/m2
14:59 74.1 °F 55.3 °F 29.96 in NE 5.6 mph 16 mph 51.8% 0.00 in 780 W/m2
15:04 74.5 °F 55.4 °F 29.96 in NE 4.6 mph 10 mph 51.4% 0.00 in 795 W/m2
15:09 75.1 °F 55.4 °F 29.96 in NE 5.3 mph 13 mph 50.6% 0.00 in 793 W/m2
15:14 75.1 °F 54.1 °F 29.96 in NE 6.4 mph 13 mph 48% 0.00 in 789 W/m2
15:19 75.1 °F 53.8 °F 29.96 in East 6.4 mph 14 mph 47.6% 0.00 in 810 W/m2
15:24 74 °F 54 °F 29.96 in ENE 5.8 mph 10 mph 49.6% 0.00 in 819 W/m2
15:29 74 °F 54.2 °F 29.95 in NE 5.4 mph 9 mph 50% 0.00 in 823 W/m2
15:34 73.8 °F 53.7 °F 29.95 in NNE 9 mph 13 mph 49.4% 0.00 in 823 W/m2
15:39 73.4 °F 53.3 °F 29.95 in NE 6 mph 16 mph 49.6% 0.00 in 788 W/m2
15:44 73.8 °F 53.6 °F 29.95 in NE 4.2 mph 17 mph 49.3% 0.00 in 802 W/m2
15:49 74.6 °F 53.7 °F 29.95 in East 5.2 mph 13 mph 48.2% 0.00 in 766 W/m2
15:54 74.5 °F 54.1 °F 29.95 in East 9 mph 15 mph 49% 0.00 in 733 W/m2
15:59 74.6 °F 54.3 °F 29.95 in East 6.3 mph 15 mph 49.2% 0.00 in 752 W/m2
16:04 74.2 °F 54.4 °F 29.95 in East 4.6 mph 15 mph 50% 0.00 in 780 W/m2
16:09 74.6 °F 54 °F 29.95 in ENE 4.6 mph 13 mph 48.6% 0.00 in 733 W/m2
16:14 74.9 °F 53.6 °F 29.95 in ENE 5.1 mph 13 mph 47.4% 0.00 in 698 W/m2
16:19 75.5 °F 54.2 °F 29.95 in NE 4.5 mph 16 mph 47.6% 0.00 in 770 W/m2
16:24 75.1 °F 53 °F 29.94 in NE 6.8 mph 16 mph 46.2% 0.00 in 705 W/m2
16:29 74.9 °F 52.2 °F 29.95 in ENE 8 mph 16 mph 45% 0.00 in 687 W/m2
16:34 74.7 °F 52.6 °F 29.94 in ESE 6.4 mph 14 mph 46.2% 0.00 in 643 W/m2
16:39 73.8 °F 52.9 °F 29.94 in East 5.1 mph 12 mph 48% 0.00 in 691 W/m2
16:44 74.7 °F 54 °F 29.94 in NE 4.3 mph 11 mph 48.4% 0.00 in 724 W/m2
16:49 75.5 °F 52.7 °F 29.94 in East 7.3 mph 15 mph 45.2% 0.00 in 169 W/m2
16:54 75.2 °F 53 °F 29.94 in ENE 6.4 mph 11 mph 46% 0.00 in 622 W/m2
16:59 75.3 °F 53 °F 29.94 in East 4.6 mph 9 mph 45.8% 0.00 in 585 W/m2
17:04 74.8 °F 52.8 °F 29.94 in North 3.2 mph 6 mph 46.4% 0.00 in 622 W/m2
17:09 75.5 °F 53.7 °F 29.94 in NE 3.3 mph 13 mph 46.6% 0.00 in 619 W/m2
17:14 76.4 °F 54 °F 29.94 in East 5.6 mph 11 mph 45.8% 0.00 in 527 W/m2
17:19 76.1 °F 53.7 °F 29.94 in East 4.3 mph 11 mph 45.8% 0.00 in 559 W/m2
17:24 75.7 °F 53.4 °F 29.93 in East 2.9 mph 10 mph 46% 0.00 in 573 W/m2
17:29 75.8 °F 54.2 °F 29.93 in ENE 2.1 mph 8 mph 47% 0.00 in 580 W/m2
17:34 76 °F 53.8 °F 29.93 in East 6.3 mph 16 mph 46.2% 0.00 in 522 W/m2
17:39 74.9 °F 53.4 °F 29.93 in East 4.2 mph 11 mph 47.2% 0.00 in 193 W/m2
17:44 73.9 °F 53.5 °F 29.93 in East 3.6 mph 8 mph 48.8% 0.00 in 183 W/m2
17:49 73.8 °F 53.4 °F 29.93 in East 3 mph 9 mph 49% 0.00 in 169 W/m2
17:54 73.7 °F 52.5 °F 29.93 in NE 4.7 mph 11 mph 47.4% 0.00 in 424 W/m2
17:59 73.3 °F 52.4 °F 29.93 in NE 2.1 mph 7 mph 48% 0.00 in 209 W/m2
18:04 73.3 °F 52.2 °F 29.93 in ENE 3.2 mph 8 mph 47.6% 0.00 in 410 W/m2
18:09 73.5 °F 52.2 °F 29.93 in NE 7.6 mph 16 mph 47.2% 0.00 in 399 W/m2
18:14 73.7 °F 51.7 °F 29.93 in ENE 5.6 mph 12 mph 46.2% 0.00 in 399 W/m2
18:19 74 °F 52.2 °F 29.93 in East 2.1 mph 11 mph 46.6% 0.00 in 411 W/m2
18:24 74.7 °F 52.9 °F 29.93 in NE 4.9 mph 11 mph 46.6% 0.00 in 392 W/m2
18:29 74.6 °F 52.5 °F 29.93 in NE 6.2 mph 13 mph 46.2% 0.00 in 362 W/m2
18:34 74.5 °F 52.8 °F 29.93 in NE 3.4 mph 10 mph 46.8% 0.00 in 341 W/m2
18:39 74.1 °F 52.5 °F 29.93 in NNE 3.9 mph 10 mph 47% 0.00 in 336 W/m2
18:44 73.9 °F 52.4 °F 29.93 in NE 3.8 mph 13 mph 46.8% 0.00 in 299 W/m2
18:49 73.9 °F 52.5 °F 29.93 in ENE 5.8 mph 13 mph 47% 0.00 in 278 W/m2
18:54 74 °F 52.5 °F 29.93 in NE 3.6 mph 9 mph 47% 0.00 in 260 W/m2
18:59 74 °F 52.6 °F 29.93 in NNE 2.4 mph 6 mph 47.2% 0.00 in 250 W/m2
19:04 74.1 °F 52.8 °F 29.94 in NE 5.2 mph 9 mph 47.5% 0.00 in 227 W/m2
19:09 73.9 °F 52.5 °F 29.94 in ENE 5 mph 10 mph 47% 0.00 in 214 W/m2
19:14 73.7 °F 52.1 °F 29.94 in NE 3.7 mph 10 mph 46.8% 0.00 in 202 W/m2
19:19 73.5 °F 51.9 °F 29.94 in NE 4.3 mph 9 mph 46.8% 0.00 in 190 W/m2
19:24 73.3 °F 51.8 °F 29.94 in NNE 4 mph 9 mph 46.8% 0.00 in 176 W/m2
19:29 73.1 °F 51.6 °F 29.94 in ENE 2.9 mph 8 mph 46.8% 0.00 in 156 W/m2
19:34 73 °F 51.7 °F 29.94 in ENE 2.8 mph 8 mph 47.2% 0.00 in 141 W/m2
19:39 73 °F 51.7 °F 29.94 in ESE 1.7 mph 5 mph 47.2% 0.00 in 125 W/m2
19:44 73 °F 52.1 °F 29.94 in ENE 2.6 mph 8 mph 48% 0.00 in 114 W/m2
19:49 72.7 °F 52.3 °F 29.94 in ENE 3.3 mph 8 mph 49% 0.00 in 98 W/m2
19:54 72.3 °F 52.5 °F 29.94 in NE 3.4 mph 6 mph 49.6% 0.00 in 88 W/m2
19:59 71.9 °F 52.1 °F 29.94 in NE 3.3 mph 5 mph 49.6% 0.00 in 76 W/m2
20:04 71.6 °F 52.1 °F 29.94 in NE 2.8 mph 7 mph 50.2% 0.00 in 63 W/m2
20:09 71.3 °F 52.2 °F 29.94 in NNE 2.9 mph 7 mph 51% 0.00 in 53 W/m2
20:14 71.1 °F 52 °F 29.95 in NNE 3.6 mph 7 mph 51% 0.00 in 42 W/m2
20:19 70.6 °F 51.9 °F 29.95 in NNE 2 mph 6 mph 51.6% 0.00 in 35 W/m2
20:24 70.3 °F 51.9 °F 29.95 in NE 2.3 mph 5 mph 52.2% 0.00 in 28 W/m2
20:29 70 °F 52 °F 29.95 in NE 2.6 mph 9 mph 53% 0.00 in 23 W/m2
20:34 69.7 °F 52.1 °F 29.95 in NE 1.7 mph 4 mph 53.6% 0.00 in 18 W/m2
20:39 69.3 °F 52.2 °F 29.95 in NE 1.6 mph 4 mph 54.4% 0.00 in 14 W/m2
20:44 69 °F 52.1 °F 29.95 in ENE 1.7 mph 4 mph 55% 0.00 in 12 W/m2
20:49 68.6 °F 52.2 °F 29.96 in ENE 1.3 mph 4 mph 55.8% 0.00 in 11 W/m2
20:54 68.2 °F 51.6 °F 29.96 in ENE 1.8 mph 4 mph 55.4% 0.00 in 9 W/m2
20:59 67.6 °F 51.5 °F 29.96 in ENE 2 mph 3 mph 56.2% 0.00 in 5 W/m2
21:04 67.1 °F 51.4 °F 29.96 in ENE 0.6 mph 3 mph 57.2% 0.00 in 0 W/m2
21:09 66.7 °F 51.7 °F 29.96 in ENE 0.6 mph 2 mph 58.6% 0.00 in 0 W/m2
21:14 66.2 °F 51.6 °F 29.96 in ENE 0.5 mph 3 mph 59.4% 0.00 in 0 W/m2
21:19 65.7 °F 51.5 °F 29.96 in NNE 1.6 mph 5 mph 60% 0.00 in 0 W/m2
21:24 65.3 °F 51.3 °F 29.97 in NNE 0.2 mph 4 mph 60.4% 0.00 in 0 W/m2
21:29 65 °F 51.4 °F 29.97 in NNE 1 mph 2 mph 61.6% 0.00 in 0 W/m2
21:34 64.6 °F 51.6 °F 29.97 in NNE 0.8 mph 2 mph 62.8% 0.00 in 0 W/m2
21:39 64.1 °F 51.4 °F 29.97 in NNE 1.3 mph 3 mph 63% 0.00 in 0 W/m2
21:43 63.9 °F 51.1 °F 29.97 in NNE 1.7 mph 3 mph 63% 0.00 in 0 W/m2
21:49 63.7 °F 51.1 °F 29.97 in NNE 0.2 mph 3 mph 63.6% 0.00 in 0 W/m2
21:54 63.4 °F 50.9 °F 29.98 in NNE 0.6 mph 3 mph 63.8% 0.00 in 0 W/m2
21:59 63.2 °F 51 °F 29.98 in NNE 0.4 mph 2 mph 64.4% 0.00 in 0 W/m2
22:04 63 °F 51.1 °F 29.98 in NNE 0.5 mph 2 mph 65% 0.00 in 0 W/m2
22:09 62.8 °F 50.9 °F 29.98 in NNE 1.2 mph 3 mph 65% 0.00 in 0 W/m2
22:14 62.4 °F 50.7 °F 29.98 in Calm   2 mph 65.4% 0.00 in 0 W/m2
22:19 62.1 °F 50.7 °F 29.98 in NNE 0.6 mph 3 mph 66.4% 0.00 in 0 W/m2
22:24 61.8 °F 50.7 °F 29.98 in NNE 0.5 mph 2 mph 67% 0.00 in 0 W/m2
22:29 61.4 °F 50.5 °F 29.98 in NNE 0.2 mph 1 mph 67.2% 0.00 in 0 W/m2
22:34 61.2 °F 50.6 °F 29.98 in NNE 0.9 mph 4 mph 68% 0.00 in 0 W/m2
22:39 61.1 °F 50.5 °F 29.98 in NNE 0.2 mph 2 mph 68% 0.00 in 0 W/m2
22:44 60.8 °F 50.2 °F 29.98 in NNE 0.7 mph 2 mph 68% 0.00 in 0 W/m2
22:49 60.4 °F 50.2 °F 29.98 in ENE 1.3 mph 6 mph 69% 0.00 in 0 W/m2
22:54 60.1 °F 50.2 °F 29.99 in East 0.9 mph 2 mph 69.8% 0.00 in 0 W/m2
22:59 59.9 °F 50.2 °F 29.99 in East 1 mph 5 mph 70% 0.00 in 0 W/m2
23:04 59.7 °F 50 °F 29.99 in East 1 mph 3 mph 70% 0.00 in 0 W/m2
23:09 59.6 °F 49.9 °F 29.99 in East 2 mph 5 mph 70% 0.00 in 0 W/m2
23:14 59.5 °F 49.8 °F 29.99 in East 1.3 mph 4 mph 70% 0.00 in 0 W/m2
23:19 59.4 °F 49.8 °F 29.99 in East 1.8 mph 5 mph 70.6% 0.00 in 0 W/m2
23:24 59.2 °F 49.8 °F 29.99 in East 0.2 mph 2 mph 71% 0.00 in 0 W/m2
23:29 59 °F 49.6 °F 29.99 in NE 2.3 mph 7 mph 71% 0.00 in 0 W/m2
23:34 58.8 °F 49.5 °F 29.99 in ENE 1.9 mph 7 mph 71% 0.00 in 0 W/m2
23:39 58.8 °F 49.5 °F 29.99 in ENE 2.1 mph 6 mph 71% 0.00 in 0 W/m2
23:44 58.7 °F 49.5 °F 29.99 in East 1.9 mph 6 mph 71.4% 0.00 in 0 W/m2
23:49 58.6 °F 49.6 °F 29.99 in ENE 2.5 mph 7 mph 72% 0.00 in 0 W/m2
23:54 58.5 °F 49.5 °F 29.99 in ENE 2.3 mph 6 mph 72% 0.00 in 0 W/m2
23:59 58.3 °F 49.6 °F 29.99 in ENE 1.6 mph 5 mph 73% 0.00 in 0 W/m2
Bath Spa Weather
Compliments of Weather Underground - 2 mb